Capitol Logistics 2293


KSDF
Louisville International Airport-Standiford Field
Louisville, Kentucky, US
KJFK
John F Kennedy International Airport
New York, New York, US

Activity Log

Date Flight Route Aircraft Duration
11/27/2019 CPX2293 FEDRA5 SHIPR HACKS J149 GEFFS Q71 PSB J49 MAGIO J106 LVZ LENDY6 LVZ LENDY6 B763 1h 42m

Route Details

Aircraft Information
Primary: Boeing 747-400BCF
Backup: Boeing 767-300BDSF
Date Restrictions
Between:Nov 16, 2019
Dec 31, 2019
Route Data
Distance: 574nm
Sched. Duration: 1h 36m
Avg. Duration: 1h 42m (+7m)
Times Flown: 1
Recm'd Route: FEDRA5 SHIPR BKW J42 MOL J24 FAK J24 HCM SAWED J121 SIE CAMRN4
Planned Altitude: 33,000ft
Origin Wx: KSDF 272356Z 22007KT 10SM BKN070 03/M08 A3012 RMK AO2 SLP202 T00331078 10056 20028 58003
Dest. Wx: KJFK 272351Z 28028G34KT 10SM BKN060 02/M10 A2976 RMK AO2 SLP078 T00171100 53048 $
Notes: SEASONAL FLIGHT | UPS SURGE OPS CONTRACT

Financial History
Total Freight: 123,072lbs
Average Load: 123,072lbs/flt
Fuel Used: 19,878lbs
Avg. Fuel Used: 19,878lbs/flt
Fuel Expense: $16,101
Avg. Fuel Expense: $16,101
Avg. Fuel Cost: $0.81/lbs
Total Gross Income: $232,606
Pilot Pay: $229
Total Expenses: $25,173
Total Revenue: $191,004
Average Revenue: $232,606.08